createdAt,value
2017-11-14T00:00:43.757Z,96.40
2017-11-14T00:03:12.246Z,96.00
2017-11-14T00:05:40.772Z,95.80
2017-11-14T00:08:08.490Z,95.80
2017-11-14T00:10:36.966Z,95.90
2017-11-14T00:13:05.443Z,95.80
2017-11-14T00:15:33.928Z,95.80
2017-11-14T00:18:02.412Z,95.80
2017-11-14T00:20:30.887Z,95.90
2017-11-14T00:22:59.375Z,95.90
2017-11-14T00:25:27.874Z,96.20
2017-11-14T00:27:55.673Z,96.20
2017-11-14T00:30:24.174Z,96.60
2017-11-14T00:32:51.888Z,96.60
2017-11-14T00:35:19.620Z,96.60
2017-11-14T00:37:47.342Z,96.60
2017-11-14T00:40:15.059Z,96.30
2017-11-14T00:42:43.537Z,96.30
2017-11-14T00:45:12.028Z,96.40
2017-11-14T00:47:40.503Z,96.50
2017-11-14T00:50:08.998Z,96.40
2017-11-14T00:52:37.475Z,96.30
2017-11-14T00:55:05.981Z,96.60
2017-11-14T00:57:33.706Z,96.60
2017-11-14T01:00:02.198Z,96.80
2017-11-14T01:02:30.675Z,96.50
2017-11-14T01:04:59.201Z,96.80
2017-11-14T01:07:26.958Z,96.80
2017-11-14T01:09:54.684Z,97.00
2017-11-14T01:12:23.167Z,96.90
2017-11-14T01:14:51.663Z,96.90
2017-11-14T01:17:19.382Z,96.90
2017-11-14T01:19:47.107Z,96.80
2017-11-14T01:22:14.816Z,96.70
2017-11-14T01:24:42.532Z,96.80
2017-11-14T01:27:10.246Z,96.90
2017-11-14T01:29:37.967Z,96.80
2017-11-14T01:32:05.700Z,96.80
2017-11-14T01:34:34.207Z,96.60
2017-11-14T01:37:01.927Z,96.60
2017-11-14T01:39:29.696Z,96.70
2017-11-14T01:41:57.432Z,96.70
2017-11-14T01:44:25.156Z,96.70
2017-11-14T01:46:52.880Z,96.60
2017-11-14T01:49:20.620Z,96.50
2017-11-14T01:51:48.345Z,96.60
2017-11-14T01:54:16.073Z,96.60
2017-11-14T01:56:43.824Z,96.60
2017-11-14T01:59:11.552Z,96.60
2017-11-14T02:01:39.297Z,96.50
2017-11-14T02:04:07.813Z,96.30
2017-11-14T02:06:35.631Z,96.30
2017-11-14T02:09:04.186Z,96.40
2017-11-14T02:11:31.954Z,96.40
2017-11-14T02:13:59.743Z,96.90
2017-11-14T02:16:28.283Z,97.10
2017-11-14T02:18:56.039Z,97.10
2017-11-14T02:21:23.839Z,97.40
2017-11-14T02:23:51.632Z,97.50
2017-11-14T02:26:20.195Z,97.30
2017-11-14T02:28:47.979Z,97.30
2017-11-14T02:31:16.560Z,97.30
2017-11-14T02:33:45.113Z,97.50
2017-11-14T02:36:12.896Z,97.50
2017-11-14T02:38:40.698Z,97.90
2017-11-14T02:41:08.478Z,97.60
2017-11-14T02:43:36.256Z,98.10
2017-11-14T02:46:04.043Z,98.10
2017-11-14T02:48:31.791Z,98.00
2017-11-14T02:50:59.557Z,97.80
2017-11-14T02:53:27.327Z,97.70
2017-11-14T02:55:55.091Z,97.50
2017-11-14T02:58:22.812Z,97.30
2017-11-14T03:00:50.542Z,97.20
2017-11-14T03:03:18.288Z,96.90
2017-11-14T03:05:46.012Z,96.70
2017-11-14T03:08:13.731Z,96.70
2017-11-14T03:10:41.499Z,96.70
2017-11-14T03:13:09.264Z,96.80
2017-11-14T03:15:37.039Z,96.60
2017-11-14T03:18:04.792Z,96.30
2017-11-14T03:20:32.555Z,96.00
2017-11-14T03:23:00.305Z,95.80
2017-11-14T03:25:28.048Z,95.90
2017-11-14T03:27:55.777Z,95.90
2017-11-14T03:30:24.320Z,96.00
2017-11-14T03:32:52.083Z,96.00
2017-11-14T03:35:19.814Z,95.90
2017-11-14T03:37:47.586Z,95.80
2017-11-14T03:40:15.360Z,96.00
2017-11-14T03:42:43.106Z,96.10
2017-11-14T03:45:10.859Z,96.10
2017-11-14T03:47:38.615Z,96.00
2017-11-14T03:50:07.114Z,96.00
2017-11-14T03:52:34.874Z,96.00
2017-11-14T03:55:02.624Z,96.00
2017-11-14T03:57:31.111Z,96.30
2017-11-14T03:59:59.636Z,96.50
2017-11-14T04:02:27.415Z,96.50
2017-11-14T04:04:55.179Z,96.50
2017-11-14T04:07:22.955Z,96.30
2017-11-14T04:09:50.691Z,96.10
2017-11-14T04:12:18.467Z,95.90
2017-11-14T04:14:46.172Z,95.80
2017-11-14T04:17:14.647Z,95.70
2017-11-14T04:19:43.127Z,95.70
2017-11-14T04:22:11.611Z,95.70
2017-11-14T04:24:40.095Z,95.80
2017-11-14T04:27:08.567Z,96.00
2017-11-14T04:29:36.291Z,96.20
2017-11-14T04:32:04.044Z,96.10
2017-11-14T04:34:31.771Z,96.10
2017-11-14T04:37:00.248Z,96.30
2017-11-14T04:39:28.746Z,96.70
2017-11-14T04:41:57.231Z,96.60
2017-11-14T04:44:24.950Z,96.60
2017-11-14T04:46:52.668Z,96.50
2017-11-14T04:49:20.374Z,96.40
2017-11-14T04:51:48.100Z,97.00
2017-11-14T04:54:15.844Z,96.80
2017-11-14T04:56:44.337Z,96.10
2017-11-14T04:59:12.045Z,96.10
2017-11-14T05:01:39.762Z,95.80
2017-11-14T05:04:07.480Z,95.50
2017-11-14T05:06:35.185Z,95.60
2017-11-14T05:09:02.987Z,95.60
2017-11-14T05:11:30.710Z,95.40
2017-11-14T05:13:59.182Z,95.40
2017-11-14T05:16:34.815Z,95.40
2017-11-14T05:19:02.700Z,95.40
2017-11-14T05:21:31.185Z,95.50
2017-11-14T05:23:58.964Z,95.40
2017-11-14T05:26:26.708Z,95.50
2017-11-14T05:28:55.203Z,96.40
2017-11-14T05:31:23.694Z,96.20
2017-11-14T05:33:51.437Z,96.20
2017-11-14T05:36:19.925Z,97.30
2017-11-14T05:38:48.423Z,97.30
2017-11-14T05:41:16.162Z,97.30
2017-11-14T05:43:43.891Z,97.30
2017-11-14T05:46:11.763Z,96.80
2017-11-14T05:48:39.491Z,96.60
2017-11-14T05:51:07.233Z,96.70
2017-11-14T05:53:35.742Z,96.40
2017-11-14T05:56:03.474Z,96.40
2017-11-14T05:58:31.967Z,96.60
2017-11-14T06:01:00.465Z,96.40
2017-11-14T06:03:28.198Z,96.40
2017-11-14T06:05:56.692Z,96.40
2017-11-14T06:08:25.187Z,96.60
2017-11-14T06:10:52.938Z,96.60
2017-11-14T06:13:20.679Z,96.60
2017-11-14T06:15:48.454Z,96.50
2017-11-14T06:18:16.194Z,96.60
2017-11-14T06:20:43.923Z,97.00
2017-11-14T06:23:11.663Z,97.10
2017-11-14T06:25:40.152Z,96.80
2017-11-14T06:28:07.875Z,96.80
2017-11-14T06:30:35.603Z,96.50
2017-11-14T06:33:03.359Z,96.50
2017-11-14T06:35:31.082Z,96.50
2017-11-14T06:37:58.798Z,97.00
2017-11-14T06:40:26.524Z,96.90
2017-11-14T06:42:54.319Z,96.50
2017-11-14T06:45:22.050Z,96.40
2017-11-14T06:47:50.559Z,96.50
2017-11-14T06:50:18.314Z,96.50
2017-11-14T06:52:46.064Z,96.50
2017-11-14T06:55:14.551Z,96.90
2017-11-14T06:57:43.027Z,96.90
2017-11-14T07:00:11.555Z,97.20
2017-11-14T07:02:39.286Z,97.20
2017-11-14T07:05:07.053Z,97.20
2017-11-14T07:07:34.782Z,97.10
2017-11-14T07:10:02.507Z,96.70
2017-11-14T07:12:30.227Z,96.60
2017-11-14T07:14:58.718Z,96.50
2017-11-14T07:17:27.206Z,96.10
2017-11-14T07:19:54.923Z,96.10
2017-11-14T07:22:22.662Z,96.00
2017-11-14T07:24:50.388Z,96.00
2017-11-14T07:27:18.927Z,95.70
2017-11-14T07:29:46.672Z,95.70
2017-11-14T07:32:14.407Z,95.60
2017-11-14T07:34:42.151Z,95.50
2017-11-14T07:37:10.640Z,95.30
2017-11-14T07:39:39.123Z,95.20
2017-11-14T07:42:07.627Z,95.20
2017-11-14T07:44:35.365Z,95.30
2017-11-14T07:47:03.859Z,95.20
2017-11-14T07:49:32.362Z,95.10
2017-11-14T07:52:00.091Z,95.10
2017-11-14T07:54:28.579Z,95.40
2017-11-14T07:56:57.070Z,95.40
2017-11-14T07:59:25.556Z,95.50
2017-11-14T08:01:54.092Z,95.60
2017-11-14T08:04:21.845Z,95.60
2017-11-14T08:06:49.598Z,95.90
2017-11-14T08:09:17.351Z,96.10
2017-11-14T08:11:45.087Z,96.50
2017-11-14T08:14:13.591Z,96.70
2017-11-14T08:16:41.315Z,96.70
2017-11-14T08:19:09.034Z,96.70
2017-11-14T08:21:36.762Z,96.50
2017-11-14T08:24:05.247Z,95.50
2017-11-14T08:26:33.780Z,95.30
2017-11-14T08:29:01.497Z,95.30
2017-11-14T08:31:29.247Z,94.00
2017-11-14T08:33:57.780Z,90.60
2017-11-14T08:36:25.552Z,90.50
2017-11-14T08:38:53.307Z,87.10
2017-11-14T08:41:21.044Z,83.60
2017-11-14T08:43:48.800Z,80.00
2017-11-14T08:46:17.372Z,76.20
2017-11-14T08:48:45.876Z,74.40
2017-11-14T08:51:13.608Z,74.30
2017-11-14T08:53:41.340Z,72.70
2017-11-14T08:56:09.075Z,69.50
2017-11-14T08:58:36.879Z,66.50
2017-11-14T09:01:04.667Z,65.90
2017-11-14T09:03:32.416Z,66.40
2017-11-14T09:06:00.177Z,65.80
2017-11-14T09:08:27.935Z,65.70
2017-11-14T09:10:55.724Z,64.80
2017-11-14T09:13:23.526Z,63.50
2017-11-14T09:15:51.367Z,62.00
2017-11-14T09:18:20.009Z,61.40
2017-11-14T09:20:47.800Z,60.80
2017-11-14T09:23:15.584Z,61.40
2017-11-14T09:25:44.145Z,61.50
2017-11-14T09:28:11.943Z,61.50
2017-11-14T09:30:40.475Z,63.00
2017-11-14T09:33:08.260Z,63.00
2017-11-14T09:35:36.044Z,63.50
2017-11-14T09:38:04.612Z,63.90
2017-11-14T09:40:32.416Z,63.90
2017-11-14T09:43:00.243Z,62.50
2017-11-14T09:45:28.086Z,62.40
2017-11-14T09:47:55.887Z,63.50
2017-11-14T09:50:23.679Z,62.10
2017-11-14T09:52:51.487Z,60.80
2017-11-14T09:55:19.272Z,59.70
2017-11-14T09:57:47.072Z,58.50
2017-11-14T10:00:15.661Z,57.80
2017-11-14T10:02:43.432Z,57.80
2017-11-14T10:05:11.242Z,58.00
2017-11-14T10:07:39.017Z,58.10
2017-11-14T10:10:06.820Z,57.90
2017-11-14T10:12:35.395Z,55.30
2017-11-14T10:15:03.913Z,55.30
2017-11-14T10:17:31.699Z,55.20
2017-11-14T10:19:59.492Z,56.40
2017-11-14T10:22:28.071Z,55.70
2017-11-14T10:24:55.851Z,55.70
2017-11-14T10:27:24.420Z,57.00
2017-11-14T10:29:52.256Z,57.00
2017-11-14T10:32:20.036Z,57.30
2017-11-14T10:34:47.828Z,57.50
2017-11-14T10:37:15.620Z,57.70
2017-11-14T10:39:43.419Z,55.70
2017-11-14T10:42:11.218Z,54.40
2017-11-14T10:44:38.984Z,54.10
2017-11-14T10:47:06.771Z,52.50
2017-11-14T10:49:35.334Z,54.90
2017-11-14T10:52:03.098Z,54.90
2017-11-14T10:54:30.897Z,55.80
2017-11-14T10:56:58.716Z,55.60
2017-11-14T10:59:26.515Z,56.40
2017-11-14T11:01:55.076Z,57.90
2017-11-14T11:04:22.864Z,57.80
2017-11-14T11:06:51.440Z,58.60
2017-11-14T11:09:20.017Z,60.40
2017-11-14T11:11:48.588Z,59.60
2017-11-14T11:14:16.368Z,59.50
2017-11-14T11:16:44.144Z,61.00
2017-11-14T11:19:12.707Z,59.30
2017-11-14T11:21:40.523Z,59.20
2017-11-14T11:24:08.287Z,62.20
2017-11-14T11:26:36.071Z,64.20
2017-11-14T11:29:03.874Z,64.10
2017-11-14T11:31:31.654Z,64.90
2017-11-14T11:34:00.197Z,58.90
2017-11-14T11:36:27.991Z,58.90
2017-11-14T11:38:56.502Z,57.10
2017-11-14T11:41:24.282Z,57.10
2017-11-14T11:43:52.068Z,58.20
2017-11-14T11:46:19.876Z,55.90
2017-11-14T11:48:48.414Z,52.50
2017-11-14T11:51:16.194Z,52.30
2017-11-14T11:53:43.979Z,52.80
2017-11-14T11:56:11.773Z,52.20
2017-11-14T11:58:39.555Z,51.30
2017-11-14T12:01:07.340Z,50.00
2017-11-14T12:03:35.147Z,48.70
2017-11-14T12:06:02.976Z,49.80
2017-11-14T12:08:30.783Z,49.10
2017-11-14T12:10:59.347Z,47.20
2017-11-14T12:13:27.146Z,47.20
2017-11-14T12:15:55.709Z,47.70
2017-11-14T12:18:23.498Z,47.60
2017-11-14T12:20:52.065Z,50.10
2017-11-14T12:23:20.644Z,49.40
2017-11-14T12:25:49.207Z,49.00
2017-11-14T12:28:16.998Z,49.00
2017-11-14T12:30:45.556Z,46.60
2017-11-14T12:33:13.341Z,46.00
2017-11-14T12:35:41.115Z,43.60
2017-11-14T12:38:09.653Z,42.90
2017-11-14T12:40:37.385Z,42.80
2017-11-14T12:43:05.119Z,42.10
2017-11-14T12:45:32.904Z,42.20
2017-11-14T12:48:01.451Z,42.00
2017-11-14T12:50:29.198Z,42.00
2017-11-14T12:52:56.950Z,41.20
2017-11-14T12:55:24.692Z,39.40
2017-11-14T12:57:52.438Z,40.30
2017-11-14T13:00:20.987Z,41.50
2017-11-14T13:02:48.732Z,41.40
2017-11-14T13:05:16.465Z,42.80
2017-11-14T13:07:44.285Z,41.10
2017-11-14T13:10:12.068Z,42.10
2017-11-14T13:12:39.827Z,42.30
2017-11-14T13:15:07.607Z,42.90
2017-11-14T13:17:36.140Z,44.50
2017-11-14T13:20:03.926Z,44.60
2017-11-14T13:22:31.659Z,46.80
2017-11-14T13:24:59.398Z,43.10
2017-11-14T13:27:27.902Z,44.10
2017-11-14T13:29:55.634Z,44.10
2017-11-14T13:32:24.184Z,44.10
2017-11-14T13:34:51.920Z,44.10
2017-11-14T13:37:19.642Z,44.00
2017-11-14T13:39:48.142Z,43.10
2017-11-14T13:42:15.868Z,43.00
2017-11-14T13:44:43.610Z,45.60
2017-11-14T13:47:11.370Z,47.80
2017-11-14T13:49:39.870Z,50.70
2017-11-14T13:52:07.608Z,51.20
2017-11-14T13:54:35.324Z,53.40
2017-11-14T13:57:03.058Z,56.10
2017-11-14T13:59:30.797Z,56.70
2017-11-14T14:01:58.521Z,58.60
2017-11-14T14:04:27.024Z,63.30
2017-11-14T14:06:54.808Z,63.20
2017-11-14T14:09:22.544Z,67.70
2017-11-14T14:11:51.054Z,72.60
2017-11-14T14:14:18.811Z,72.60
2017-11-14T14:16:46.544Z,73.90
2017-11-14T14:19:15.022Z,78.20
2017-11-14T14:21:42.763Z,78.20
2017-11-14T14:24:10.481Z,79.10
2017-11-14T14:26:38.196Z,80.30
2017-11-14T14:29:05.922Z,80.40
2017-11-14T14:31:33.655Z,81.40
2017-11-14T14:34:02.156Z,83.50
2017-11-14T14:36:29.883Z,83.50
2017-11-14T14:38:57.606Z,84.60
2017-11-14T14:41:25.389Z,86.30
2017-11-14T14:43:53.121Z,85.90
2017-11-14T14:46:20.844Z,86.20
2017-11-14T14:48:48.567Z,85.80
2017-11-14T14:51:16.293Z,86.10
2017-11-14T14:53:44.787Z,88.10
2017-11-14T14:56:12.511Z,87.50
2017-11-14T14:58:40.244Z,87.50
2017-11-14T15:01:07.977Z,87.80
2017-11-14T15:03:35.686Z,88.20
2017-11-14T15:06:03.429Z,88.20
2017-11-14T15:08:31.148Z,88.00
2017-11-14T15:10:59.637Z,88.60
2017-11-14T15:13:27.353Z,88.50
2017-11-14T15:15:55.093Z,89.00
2017-11-14T15:18:22.825Z,88.90
2017-11-14T15:20:51.338Z,89.10
2017-11-14T15:23:19.047Z,89.10
2017-11-14T15:25:46.768Z,89.60
2017-11-14T15:28:14.497Z,89.90
2017-11-14T15:30:43.022Z,90.40
2017-11-14T15:33:10.752Z,90.40
2017-11-14T15:35:39.248Z,91.50
2017-11-14T15:38:06.985Z,91.50
2017-11-14T15:40:35.472Z,92.30
2017-11-14T15:43:03.973Z,92.70
2017-11-14T15:45:31.706Z,92.70
2017-11-14T15:47:59.430Z,93.00
2017-11-14T15:50:27.158Z,93.30
2017-11-14T15:52:54.918Z,93.70
2017-11-14T15:55:23.444Z,94.10
2017-11-14T15:57:51.180Z,94.10
2017-11-14T16:00:18.908Z,94.30
2017-11-14T16:02:47.405Z,94.60
2017-11-14T16:05:15.904Z,94.90
2017-11-14T16:07:43.631Z,94.80
2017-11-14T16:10:11.365Z,95.10
2017-11-14T16:12:39.111Z,95.20
2017-11-14T16:15:06.862Z,95.30
2017-11-14T16:17:34.590Z,95.40
2017-11-14T16:20:02.330Z,95.50
2017-11-14T16:22:30.116Z,95.60
2017-11-14T16:24:57.835Z,95.90
2017-11-14T16:27:25.587Z,95.90
2017-11-14T16:29:53.317Z,95.90
2017-11-14T16:32:21.064Z,95.90
2017-11-14T16:34:48.827Z,96.10
2017-11-14T16:37:16.571Z,96.40
2017-11-14T16:39:44.304Z,96.30
2017-11-14T16:42:12.114Z,96.50
2017-11-14T16:44:39.844Z,96.50
2017-11-14T16:47:07.581Z,96.20
2017-11-14T16:49:36.114Z,96.20
2017-11-14T16:52:03.902Z,96.20
2017-11-14T16:54:31.664Z,96.10
2017-11-14T16:56:59.411Z,96.50
2017-11-14T16:59:27.170Z,96.60
2017-11-14T17:01:54.908Z,96.80
2017-11-14T17:04:22.650Z,96.90
2017-11-14T17:06:51.172Z,97.00
2017-11-14T17:09:18.928Z,97.00
2017-11-14T17:11:46.700Z,97.00
2017-11-14T17:14:14.443Z,97.20
2017-11-14T17:16:42.185Z,97.30
2017-11-14T17:19:10.670Z,97.60
2017-11-14T17:21:39.172Z,97.50
2017-11-14T17:24:06.908Z,97.50
2017-11-14T17:26:34.628Z,97.40
2017-11-14T17:29:02.392Z,97.80
2017-11-14T17:31:30.120Z,97.50
2017-11-14T17:33:58.622Z,97.30
2017-11-14T17:36:26.354Z,97.30
2017-11-14T17:38:57.883Z,97.20
2017-11-14T17:41:25.609Z,97.20
2017-11-14T17:43:53.346Z,97.30
2017-11-14T17:46:21.845Z,97.60
2017-11-14T17:48:49.583Z,97.60
2017-11-14T17:51:18.075Z,98.00
2017-11-14T17:53:46.604Z,98.00
2017-11-14T17:56:14.321Z,98.00
2017-11-14T17:58:42.815Z,98.10
2017-11-14T18:01:10.591Z,98.10
2017-11-14T18:03:38.299Z,98.00
2017-11-14T18:06:06.019Z,98.00
2017-11-14T18:08:33.743Z,98.20
2017-11-14T18:11:01.503Z,98.20
2017-11-14T18:13:29.237Z,98.10
2017-11-14T18:15:56.973Z,98.20
2017-11-14T18:18:24.720Z,98.20
2017-11-14T18:20:53.206Z,97.90
2017-11-14T18:23:21.691Z,97.90
2017-11-14T18:25:49.417Z,97.90
2017-11-14T18:28:17.149Z,97.80
2017-11-14T18:30:44.877Z,97.70
2017-11-14T18:33:13.368Z,97.70
2017-11-14T18:35:41.092Z,97.70
2017-11-14T18:38:08.820Z,97.50
2017-11-14T18:40:36.537Z,97.50
2017-11-14T18:43:05.033Z,97.60
2017-11-14T18:45:33.538Z,97.70
2017-11-14T18:48:01.262Z,97.70
2017-11-14T18:50:29.812Z,97.70
2017-11-14T18:52:57.540Z,97.70
2017-11-14T18:55:25.288Z,97.70
2017-11-14T18:57:53.792Z,97.80
2017-11-14T19:00:21.520Z,97.80
2017-11-14T19:02:50.024Z,97.80
2017-11-14T19:05:17.760Z,97.80
2017-11-14T19:07:45.488Z,98.00
2017-11-14T19:10:13.232Z,98.10
2017-11-14T19:12:40.961Z,98.10
2017-11-14T19:15:09.457Z,98.20
2017-11-14T19:17:37.945Z,98.20
2017-11-14T19:20:05.670Z,98.20
2017-11-14T19:22:33.421Z,98.20
2017-11-14T19:25:01.146Z,98.50
2017-11-14T19:27:28.858Z,98.30
2017-11-14T19:29:56.619Z,98.30
2017-11-14T19:32:24.481Z,98.40
2017-11-14T19:34:52.352Z,99.10
2017-11-14T19:37:20.066Z,98.60
2017-11-14T19:39:47.787Z,98.50
2017-11-14T19:42:15.643Z,98.00
2017-11-14T19:44:43.359Z,97.90
2017-11-14T19:47:11.086Z,97.90
2017-11-14T19:49:38.831Z,97.80
2017-11-14T19:52:06.555Z,97.90
2017-11-14T19:54:34.274Z,97.90
2017-11-14T19:57:02.133Z,97.90
2017-11-14T19:59:30.002Z,98.00
2017-11-14T20:01:57.752Z,98.10
2017-11-14T20:04:25.466Z,98.20
2017-11-14T20:06:53.971Z,98.20
2017-11-14T20:09:21.763Z,98.20
2017-11-14T20:11:49.542Z,98.10
2017-11-14T20:14:17.406Z,98.20
2017-11-14T20:16:45.378Z,98.20
2017-11-14T20:19:13.179Z,98.30
2017-11-14T20:21:41.716Z,98.30
2017-11-14T20:24:09.443Z,98.30
2017-11-14T20:26:37.193Z,98.30
2017-11-14T20:29:04.933Z,98.50
2017-11-14T20:31:32.785Z,98.60
2017-11-14T20:34:00.652Z,98.50
2017-11-14T20:36:28.388Z,98.40
2017-11-14T20:38:56.111Z,98.30
2017-11-14T20:41:24.766Z,98.40
2017-11-14T20:43:52.636Z,98.40
2017-11-14T20:46:20.502Z,98.10
2017-11-14T20:48:48.290Z,98.10
2017-11-14T20:51:15.999Z,98.10
2017-11-14T20:53:43.897Z,98.20
2017-11-14T20:56:11.768Z,98.20
2017-11-14T20:58:39.641Z,98.20
2017-11-14T21:01:07.501Z,98.20
2017-11-14T21:03:35.376Z,98.20
2017-11-14T21:06:03.093Z,98.10
2017-11-14T21:08:30.897Z,98.00
2017-11-14T21:10:58.765Z,98.00
2017-11-14T21:13:26.499Z,98.30
2017-11-14T21:15:54.396Z,98.30
2017-11-14T21:18:22.114Z,98.30
2017-11-14T21:20:49.826Z,98.20
2017-11-14T21:23:17.580Z,98.60
2017-11-14T21:25:45.356Z,98.20
2017-11-14T21:28:13.220Z,98.30
2017-11-14T21:30:41.089Z,98.20
2017-11-14T21:33:08.956Z,98.10
2017-11-14T21:35:36.764Z,98.10
2017-11-14T21:38:10.212Z,98.20
2017-11-14T21:40:38.087Z,98.20
2017-11-14T21:43:05.954Z,98.10
2017-11-14T21:45:33.823Z,98.10
2017-11-14T21:48:01.691Z,98.00
2017-11-14T21:50:29.557Z,98.20
2017-11-14T21:52:57.424Z,98.20
2017-11-14T21:55:25.291Z,98.20
2017-11-14T21:57:53.100Z,98.30
2017-11-14T22:00:21.741Z,98.30
2017-11-14T22:02:49.611Z,98.30
2017-11-14T22:05:17.340Z,98.30
2017-11-14T22:07:45.140Z,98.30
2017-11-14T22:10:13.006Z,98.30
2017-11-14T22:12:40.749Z,98.30
2017-11-14T22:15:08.641Z,98.30
2017-11-14T22:17:36.506Z,98.30
2017-11-14T22:20:04.376Z,98.30
2017-11-14T22:22:32.240Z,98.40
2017-11-14T22:25:00.108Z,98.30
2017-11-14T22:27:27.840Z,98.20
2017-11-14T22:29:55.640Z,98.20
2017-11-14T22:32:23.506Z,98.20
2017-11-14T22:34:51.372Z,98.10
2017-11-14T22:37:19.167Z,98.20
2017-11-14T22:39:47.005Z,98.20
2017-11-14T22:42:14.883Z,98.10
2017-11-14T22:44:42.741Z,98.10
2017-11-14T22:47:10.607Z,98.20
2017-11-14T22:49:38.475Z,98.30
2017-11-14T22:52:06.342Z,98.40
2017-11-14T22:54:34.208Z,98.50
2017-11-14T22:57:02.081Z,98.40
2017-11-14T22:59:29.945Z,98.50
2017-11-14T23:01:57.814Z,98.30
2017-11-14T23:04:25.680Z,98.10
2017-11-14T23:06:53.547Z,97.90
2017-11-14T23:09:21.414Z,97.80
2017-11-14T23:11:49.286Z,97.70
2017-11-14T23:14:17.151Z,97.70
2017-11-14T23:16:45.018Z,97.60
2017-11-14T23:19:12.884Z,97.70
2017-11-14T23:21:40.750Z,97.70
2017-11-14T23:24:09.544Z,97.70
2017-11-14T23:26:37.410Z,97.60
2017-11-14T23:29:05.273Z,97.60
2017-11-14T23:31:33.142Z,97.60
2017-11-14T23:34:01.008Z,97.50
2017-11-14T23:36:28.876Z,97.50
2017-11-14T23:38:56.851Z,97.70
2017-11-14T23:41:24.713Z,97.50
2017-11-14T23:43:52.438Z,97.40
2017-11-14T23:46:20.174Z,97.40
2017-11-14T23:48:48.658Z,97.20
2017-11-14T23:51:17.157Z,97.10
2017-11-14T23:53:44.871Z,97.20
2017-11-14T23:56:12.734Z,97.30
2017-11-14T23:58:40.455Z,97.30
